sensor_id;sensor_type;location;lat;lon;timestamp;temperature;humidity
48575;DHT22;34352;51.084;3.712;2023-04-24T00:00:32;9.90;90.00
48575;DHT22;34352;51.084;3.712;2023-04-24T00:02:58;9.80;90.10
48575;DHT22;34352;51.084;3.712;2023-04-24T00:05:24;9.90;89.30
48575;DHT22;34352;51.084;3.712;2023-04-24T00:07:50;9.90;88.60
48575;DHT22;34352;51.084;3.712;2023-04-24T00:10:21;9.90;89.20
48575;DHT22;34352;51.084;3.712;2023-04-24T00:12:47;9.80;89.30
48575;DHT22;34352;51.084;3.712;2023-04-24T00:15:13;9.80;90.30
48575;DHT22;34352;51.084;3.712;2023-04-24T00:17:39;9.70;90.60
48575;DHT22;34352;51.084;3.712;2023-04-24T00:20:05;9.70;90.80
48575;DHT22;34352;51.084;3.712;2023-04-24T00:22:33;9.60;91.30
48575;DHT22;34352;51.084;3.712;2023-04-24T00:24:59;9.60;91.80
48575;DHT22;34352;51.084;3.712;2023-04-24T00:27:25;9.70;92.00
48575;DHT22;34352;51.084;3.712;2023-04-24T00:29:50;9.60;91.80
48575;DHT22;34352;51.084;3.712;2023-04-24T00:32:17;9.60;91.50
48575;DHT22;34352;51.084;3.712;2023-04-24T00:34:44;9.60;91.30
48575;DHT22;34352;51.084;3.712;2023-04-24T00:37:09;9.70;90.50
48575;DHT22;34352;51.084;3.712;2023-04-24T00:39:35;9.60;90.40
48575;DHT22;34352;51.084;3.712;2023-04-24T00:42:01;9.60;90.40
48575;DHT22;34352;51.084;3.712;2023-04-24T00:44:27;9.60;90.40
48575;DHT22;34352;51.084;3.712;2023-04-24T00:46:55;9.50;88.80
48575;DHT22;34352;51.084;3.712;2023-04-24T00:49:21;9.60;88.80
48575;DHT22;34352;51.084;3.712;2023-04-24T00:51:47;9.70;89.10
48575;DHT22;34352;51.084;3.712;2023-04-24T00:54:14;9.70;87.10
48575;DHT22;34352;51.084;3.712;2023-04-24T00:56:42;9.70;86.50
48575;DHT22;34352;51.084;3.712;2023-04-24T00:59:09;9.60;86.30
48575;DHT22;34352;51.084;3.712;2023-04-24T01:01:37;9.60;86.10
48575;DHT22;34352;51.084;3.712;2023-04-24T01:04:03;9.50;85.90
48575;DHT22;34352;51.084;3.712;2023-04-24T01:06:30;9.50;87.60
48575;DHT22;34352;51.084;3.712;2023-04-24T01:08:57;9.60;87.40
48575;DHT22;34352;51.084;3.712;2023-04-24T01:11:25;9.50;85.60
48575;DHT22;34352;51.084;3.712;2023-04-24T01:13:52;9.50;85.30
48575;DHT22;34352;51.084;3.712;2023-04-24T01:16:18;9.40;85.10
48575;DHT22;34352;51.084;3.712;2023-04-24T01:18:47;9.50;85.60
48575;DHT22;34352;51.084;3.712;2023-04-24T01:21:16;9.50;85.20
48575;DHT22;34352;51.084;3.712;2023-04-24T01:23:43;9.40;86.20
48575;DHT22;34352;51.084;3.712;2023-04-24T01:26:09;9.40;87.60
48575;DHT22;34352;51.084;3.712;2023-04-24T01:28:35;9.30;88.50
48575;DHT22;34352;51.084;3.712;2023-04-24T01:31:03;9.40;89.20
48575;DHT22;34352;51.084;3.712;2023-04-24T01:33:28;9.30;88.80
48575;DHT22;34352;51.084;3.712;2023-04-24T01:35:55;9.60;90.10
48575;DHT22;34352;51.084;3.712;2023-04-24T01:38:21;9.30;89.50
48575;DHT22;34352;51.084;3.712;2023-04-24T01:40:51;9.40;89.30
48575;DHT22;34352;51.084;3.712;2023-04-24T01:43:18;9.40;89.80
48575;DHT22;34352;51.084;3.712;2023-04-24T01:45:46;9.40;90.20
48575;DHT22;34352;51.084;3.712;2023-04-24T01:48:13;9.40;90.10
48575;DHT22;34352;51.084;3.712;2023-04-24T01:50:45;9.40;90.30
48575;DHT22;34352;51.084;3.712;2023-04-24T01:53:13;9.40;90.60
48575;DHT22;34352;51.084;3.712;2023-04-24T01:55:38;9.40;90.90
48575;DHT22;34352;51.084;3.712;2023-04-24T01:58:04;9.40;90.90
48575;DHT22;34352;51.084;3.712;2023-04-24T02:00:30;9.40;90.70
48575;DHT22;34352;51.084;3.712;2023-04-24T02:02:57;9.30;91.40
48575;DHT22;34352;51.084;3.712;2023-04-24T02:05:23;9.20;92.20
48575;DHT22;34352;51.084;3.712;2023-04-24T02:07:49;9.20;92.70
48575;DHT22;34352;51.084;3.712;2023-04-24T02:10:15;9.20;92.80
48575;DHT22;34352;51.084;3.712;2023-04-24T02:12:40;9.10;93.00
48575;DHT22;34352;51.084;3.712;2023-04-24T02:15:07;9.10;93.50
48575;DHT22;34352;51.084;3.712;2023-04-24T02:17:34;9.20;93.50
48575;DHT22;34352;51.084;3.712;2023-04-24T02:20:01;9.30;93.10
48575;DHT22;34352;51.084;3.712;2023-04-24T02:22:27;9.20;93.20
48575;DHT22;34352;51.084;3.712;2023-04-24T02:24:54;9.20;93.50
48575;DHT22;34352;51.084;3.712;2023-04-24T02:27:22;9.20;93.30
48575;DHT22;34352;51.084;3.712;2023-04-24T02:29:48;9.20;93.20
48575;DHT22;34352;51.084;3.712;2023-04-24T02:32:13;9.20;93.30
48575;DHT22;34352;51.084;3.712;2023-04-24T02:35:04;9.20;93.40
48575;DHT22;34352;51.084;3.712;2023-04-24T02:37:31;9.30;93.70
48575;DHT22;34352;51.084;3.712;2023-04-24T02:39:56;9.30;93.70
48575;DHT22;34352;51.084;3.712;2023-04-24T02:42:22;9.40;93.80
48575;DHT22;34352;51.084;3.712;2023-04-24T02:44:48;9.30;93.70
48575;DHT22;34352;51.084;3.712;2023-04-24T02:47:16;9.30;93.80
48575;DHT22;34352;51.084;3.712;2023-04-24T02:49:44;9.30;93.80
48575;DHT22;34352;51.084;3.712;2023-04-24T02:52:10;9.40;94.00
48575;DHT22;34352;51.084;3.712;2023-04-24T02:54:36;9.40;93.80
48575;DHT22;34352;51.084;3.712;2023-04-24T02:57:01;9.60;93.90
48575;DHT22;34352;51.084;3.712;2023-04-24T02:59:29;9.40;93.80
48575;DHT22;34352;51.084;3.712;2023-04-24T03:01:54;9.40;93.60
48575;DHT22;34352;51.084;3.712;2023-04-24T03:04:20;9.50;93.50
48575;DHT22;34352;51.084;3.712;2023-04-24T03:06:46;9.40;93.20
48575;DHT22;34352;51.084;3.712;2023-04-24T03:09:11;9.40;93.20
48575;DHT22;34352;51.084;3.712;2023-04-24T03:11:37;9.40;92.90
48575;DHT22;34352;51.084;3.712;2023-04-24T03:14:03;9.40;92.60
48575;DHT22;34352;51.084;3.712;2023-04-24T03:16:28;9.30;92.10
48575;DHT22;34352;51.084;3.712;2023-04-24T03:18:54;9.30;92.10
48575;DHT22;34352;51.084;3.712;2023-04-24T03:21:20;9.30;91.90
48575;DHT22;34352;51.084;3.712;2023-04-24T03:23:52;9.20;91.80
48575;DHT22;34352;51.084;3.712;2023-04-24T03:26:17;9.10;92.30
48575;DHT22;34352;51.084;3.712;2023-04-24T03:28:44;9.10;92.20
48575;DHT22;34352;51.084;3.712;2023-04-24T03:31:10;9.20;92.50
48575;DHT22;34352;51.084;3.712;2023-04-24T03:33:36;9.30;92.40
48575;DHT22;34352;51.084;3.712;2023-04-24T03:36:03;9.30;92.30
48575;DHT22;34352;51.084;3.712;2023-04-24T03:38:30;9.30;92.40
48575;DHT22;34352;51.084;3.712;2023-04-24T03:40:56;9.30;92.30
48575;DHT22;34352;51.084;3.712;2023-04-24T03:43:21;9.30;91.90
48575;DHT22;34352;51.084;3.712;2023-04-24T03:45:47;9.20;92.00
48575;DHT22;34352;51.084;3.712;2023-04-24T03:48:13;9.30;91.70
48575;DHT22;34352;51.084;3.712;2023-04-24T03:50:41;9.20;91.60
48575;DHT22;34352;51.084;3.712;2023-04-24T03:53:07;9.10;91.40
48575;DHT22;34352;51.084;3.712;2023-04-24T03:55:33;9.10;91.30
48575;DHT22;34352;51.084;3.712;2023-04-24T03:57:59;9.00;91.30
48575;DHT22;34352;51.084;3.712;2023-04-24T04:00:25;8.90;91.60
48575;DHT22;34352;51.084;3.712;2023-04-24T04:02:51;9.10;91.40
48575;DHT22;34352;51.084;3.712;2023-04-24T04:05:17;9.00;91.00
48575;DHT22;34352;51.084;3.712;2023-04-24T04:07:42;9.00;91.10
48575;DHT22;34352;51.084;3.712;2023-04-24T04:10:08;8.90;91.20
48575;DHT22;34352;51.084;3.712;2023-04-24T04:12:36;8.90;91.30
48575;DHT22;34352;51.084;3.712;2023-04-24T04:15:02;8.90;91.10
48575;DHT22;34352;51.084;3.712;2023-04-24T04:17:28;9.00;91.30
48575;DHT22;34352;51.084;3.712;2023-04-24T04:19:55;8.90;91.10
48575;DHT22;34352;51.084;3.712;2023-04-24T04:22:22;8.90;90.50
48575;DHT22;34352;51.084;3.712;2023-04-24T04:24:49;8.80;91.20
48575;DHT22;34352;51.084;3.712;2023-04-24T04:27:16;8.80;91.50
48575;DHT22;34352;51.084;3.712;2023-04-24T04:29:44;8.80;91.20
48575;DHT22;34352;51.084;3.712;2023-04-24T04:32:10;8.80;91.30
48575;DHT22;34352;51.084;3.712;2023-04-24T04:34:35;8.70;91.10
48575;DHT22;34352;51.084;3.712;2023-04-24T04:37:03;8.80;91.20
48575;DHT22;34352;51.084;3.712;2023-04-24T04:39:36;8.70;91.10
48575;DHT22;34352;51.084;3.712;2023-04-24T04:42:05;8.80;91.40
48575;DHT22;34352;51.084;3.712;2023-04-24T04:44:35;8.70;91.20
48575;DHT22;34352;51.084;3.712;2023-04-24T04:47:02;8.70;91.30
48575;DHT22;34352;51.084;3.712;2023-04-24T04:49:31;8.80;91.10
48575;DHT22;34352;51.084;3.712;2023-04-24T04:51:58;8.70;91.10
48575;DHT22;34352;51.084;3.712;2023-04-24T04:54:24;8.70;91.00
48575;DHT22;34352;51.084;3.712;2023-04-24T04:56:52;8.70;91.30
48575;DHT22;34352;51.084;3.712;2023-04-24T04:59:17;8.80;91.20
48575;DHT22;34352;51.084;3.712;2023-04-24T05:01:43;8.70;91.20
48575;DHT22;34352;51.084;3.712;2023-04-24T05:04:09;8.70;91.50
48575;DHT22;34352;51.084;3.712;2023-04-24T05:06:34;8.70;91.80
48575;DHT22;34352;51.084;3.712;2023-04-24T05:09:00;8.70;91.70
48575;DHT22;34352;51.084;3.712;2023-04-24T05:11:27;8.60;91.90
48575;DHT22;34352;51.084;3.712;2023-04-24T05:13:52;8.70;92.00
48575;DHT22;34352;51.084;3.712;2023-04-24T05:16:20;8.70;92.10
48575;DHT22;34352;51.084;3.712;2023-04-24T05:18:46;8.70;92.40
48575;DHT22;34352;51.084;3.712;2023-04-24T05:21:12;9.00;92.30
48575;DHT22;34352;51.084;3.712;2023-04-24T05:23:39;8.70;92.40
48575;DHT22;34352;51.084;3.712;2023-04-24T05:26:05;9.40;92.60
48575;DHT22;34352;51.084;3.712;2023-04-24T05:28:31;9.10;92.30
48575;DHT22;34352;51.084;3.712;2023-04-24T05:30:56;8.80;92.20
48575;DHT22;34352;51.084;3.712;2023-04-24T05:33:23;8.80;91.90
48575;DHT22;34352;51.084;3.712;2023-04-24T05:35:51;8.90;91.50
48575;DHT22;34352;51.084;3.712;2023-04-24T05:38:17;8.90;91.60
48575;DHT22;34352;51.084;3.712;2023-04-24T05:40:45;8.90;91.70
48575;DHT22;34352;51.084;3.712;2023-04-24T05:43:11;8.90;91.50
48575;DHT22;34352;51.084;3.712;2023-04-24T05:45:38;8.90;91.60
48575;DHT22;34352;51.084;3.712;2023-04-24T05:48:04;8.90;91.30
48575;DHT22;34352;51.084;3.712;2023-04-24T05:50:33;8.90;91.60
48575;DHT22;34352;51.084;3.712;2023-04-24T05:52:58;8.90;91.40
48575;DHT22;34352;51.084;3.712;2023-04-24T05:55:25;8.90;91.60
48575;DHT22;34352;51.084;3.712;2023-04-24T05:57:51;8.90;91.90
48575;DHT22;34352;51.084;3.712;2023-04-24T06:00:19;8.90;91.60
48575;DHT22;34352;51.084;3.712;2023-04-24T06:02:46;8.90;91.50
48575;DHT22;34352;51.084;3.712;2023-04-24T06:05:12;9.00;91.60
48575;DHT22;34352;51.084;3.712;2023-04-24T06:07:39;9.20;91.50
48575;DHT22;34352;51.084;3.712;2023-04-24T06:10:06;9.00;91.50
48575;DHT22;34352;51.084;3.712;2023-04-24T06:12:32;9.10;91.50
48575;DHT22;34352;51.084;3.712;2023-04-24T06:15:00;9.10;91.20
48575;DHT22;34352;51.084;3.712;2023-04-24T06:17:26;9.10;90.70
48575;DHT22;34352;51.084;3.712;2023-04-24T06:19:51;9.20;90.80
48575;DHT22;34352;51.084;3.712;2023-04-24T06:22:17;9.20;90.60
48575;DHT22;34352;51.084;3.712;2023-04-24T06:24:43;9.20;90.20
48575;DHT22;34352;51.084;3.712;2023-04-24T06:27:10;9.20;90.40
48575;DHT22;34352;51.084;3.712;2023-04-24T06:29:39;9.40;90.60
48575;DHT22;34352;51.084;3.712;2023-04-24T06:32:06;9.40;90.80
48575;DHT22;34352;51.084;3.712;2023-04-24T06:34:32;9.60;90.20
48575;DHT22;34352;51.084;3.712;2023-04-24T06:36:59;9.80;89.50
48575;DHT22;34352;51.084;3.712;2023-04-24T06:39:33;10.00;86.90
48575;DHT22;34352;51.084;3.712;2023-04-24T06:42:01;10.10;81.90
48575;DHT22;34352;51.084;3.712;2023-04-24T06:44:28;10.20;80.00
48575;DHT22;34352;51.084;3.712;2023-04-24T06:46:53;10.40;73.40
48575;DHT22;34352;51.084;3.712;2023-04-24T06:49:19;10.40;71.00
48575;DHT22;34352;51.084;3.712;2023-04-24T06:51:46;10.30;72.20
48575;DHT22;34352;51.084;3.712;2023-04-24T06:54:12;10.30;73.60
48575;DHT22;34352;51.084;3.712;2023-04-24T06:56:38;10.70;76.00
48575;DHT22;34352;51.084;3.712;2023-04-24T06:59:03;10.90;66.40
48575;DHT22;34352;51.084;3.712;2023-04-24T07:01:29;10.70;62.60
48575;DHT22;34352;51.084;3.712;2023-04-24T07:03:56;10.50;65.30
48575;DHT22;34352;51.084;3.712;2023-04-24T07:06:22;10.30;69.30
48575;DHT22;34352;51.084;3.712;2023-04-24T07:08:49;10.30;71.40
48575;DHT22;34352;51.084;3.712;2023-04-24T07:11:14;10.30;70.50
48575;DHT22;34352;51.084;3.712;2023-04-24T07:13:40;10.30;69.00
48575;DHT22;34352;51.084;3.712;2023-04-24T07:16:08;10.30;69.90
48575;DHT22;34352;51.084;3.712;2023-04-24T07:18:34;10.20;72.20
48575;DHT22;34352;51.084;3.712;2023-04-24T07:20:59;10.10;67.70
48575;DHT22;34352;51.084;3.712;2023-04-24T07:23:26;10.10;63.70
48575;DHT22;34352;51.084;3.712;2023-04-24T07:25:52;10.10;66.00
48575;DHT22;34352;51.084;3.712;2023-04-24T07:28:18;10.30;66.00
48575;DHT22;34352;51.084;3.712;2023-04-24T07:30:43;10.40;58.00
48575;DHT22;34352;51.084;3.712;2023-04-24T07:33:09;10.60;54.40
48575;DHT22;34352;51.084;3.712;2023-04-24T07:35:38;10.60;54.30
48575;DHT22;34352;51.084;3.712;2023-04-24T07:38:04;10.60;49.90
48575;DHT22;34352;51.084;3.712;2023-04-24T07:40:30;10.50;50.00
48575;DHT22;34352;51.084;3.712;2023-04-24T07:42:56;10.50;49.50
48575;DHT22;34352;51.084;3.712;2023-04-24T07:45:21;10.50;49.40
48575;DHT22;34352;51.084;3.712;2023-04-24T07:47:50;10.40;44.90
48575;DHT22;34352;51.084;3.712;2023-04-24T07:50:19;10.40;49.00
48575;DHT22;34352;51.084;3.712;2023-04-24T07:52:45;10.30;52.60
48575;DHT22;34352;51.084;3.712;2023-04-24T07:55:10;10.20;57.80
48575;DHT22;34352;51.084;3.712;2023-04-24T07:57:36;10.30;57.80
48575;DHT22;34352;51.084;3.712;2023-04-24T08:00:04;10.30;54.30
48575;DHT22;34352;51.084;3.712;2023-04-24T08:02:31;10.20;54.40
48575;DHT22;34352;51.084;3.712;2023-04-24T08:04:56;10.80;56.30
48575;DHT22;34352;51.084;3.712;2023-04-24T08:07:23;12.10;28.70
48575;DHT22;34352;51.084;3.712;2023-04-24T08:09:49;13.10;1.00
48575;DHT22;34352;51.084;3.712;2023-04-24T08:12:15;14.00;1.00
48575;DHT22;34352;51.084;3.712;2023-04-24T08:14:42;14.50;1.00
48575;DHT22;34352;51.084;3.712;2023-04-24T08:17:08;14.90;99.90
48575;DHT22;34352;51.084;3.712;2023-04-24T08:19:39;14.70;99.90
48575;DHT22;34352;51.084;3.712;2023-04-24T08:22:07;14.00;99.90
48575;DHT22;34352;51.084;3.712;2023-04-24T08:24:33;13.10;99.90
48575;DHT22;34352;51.084;3.712;2023-04-24T08:26:59;12.40;1.00
48575;DHT22;34352;51.084;3.712;2023-04-24T08:29:25;12.10;1.00
48575;DHT22;34352;51.084;3.712;2023-04-24T08:31:52;12.50;1.00
48575;DHT22;34352;51.084;3.712;2023-04-24T08:34:20;13.60;1.00
48575;DHT22;34352;51.084;3.712;2023-04-24T08:36:46;14.20;99.90
48575;DHT22;34352;51.084;3.712;2023-04-24T08:39:12;13.80;99.90
48575;DHT22;34352;51.084;3.712;2023-04-24T08:41:39;13.20;99.90
48575;DHT22;34352;51.084;3.712;2023-04-24T08:44:09;12.70;99.90
48575;DHT22;34352;51.084;3.712;2023-04-24T08:46:35;12.60;99.90
48575;DHT22;34352;51.084;3.712;2023-04-24T08:49:02;12.90;99.90
48575;DHT22;34352;51.084;3.712;2023-04-24T08:51:27;14.10;99.90
48575;DHT22;34352;51.084;3.712;2023-04-24T08:53:56;15.40;99.90
48575;DHT22;34352;51.084;3.712;2023-04-24T08:56:22;14.80;99.90
48575;DHT22;34352;51.084;3.712;2023-04-24T08:58:53;14.00;99.90
48575;DHT22;34352;51.084;3.712;2023-04-24T09:01:24;13.50;99.90
48575;DHT22;34352;51.084;3.712;2023-04-24T09:03:51;13.00;99.90
48575;DHT22;34352;51.084;3.712;2023-04-24T09:06:19;12.70;99.90
48575;DHT22;34352;51.084;3.712;2023-04-24T09:08:48;12.10;99.90
48575;DHT22;34352;51.084;3.712;2023-04-24T09:11:15;11.80;99.90
48575;DHT22;34352;51.084;3.712;2023-04-24T09:13:48;11.50;99.90
48575;DHT22;34352;51.084;3.712;2023-04-24T09:16:13;11.60;1.00
48575;DHT22;34352;51.084;3.712;2023-04-24T09:18:43;11.70;99.90
48575;DHT22;34352;51.084;3.712;2023-04-24T09:21:10;11.70;99.90
48575;DHT22;34352;51.084;3.712;2023-04-24T09:26:43;11.60;99.90
48575;DHT22;34352;51.084;3.712;2023-04-24T09:29:21;11.80;99.90
48575;DHT22;34352;51.084;3.712;2023-04-24T09:31:47;12.40;99.90
48575;DHT22;34352;51.084;3.712;2023-04-24T09:34:14;13.10;99.90
48575;DHT22;34352;51.084;3.712;2023-04-24T09:36:44;13.60;99.90
48575;DHT22;34352;51.084;3.712;2023-04-24T09:39:16;13.80;99.90
48575;DHT22;34352;51.084;3.712;2023-04-24T09:41:44;14.30;99.90
48575;DHT22;34352;51.084;3.712;2023-04-24T09:44:19;14.50;99.90
48575;DHT22;34352;51.084;3.712;2023-04-24T09:46:55;13.60;99.90
48575;DHT22;34352;51.084;3.712;2023-04-24T09:49:28;13.00;99.90
48575;DHT22;34352;51.084;3.712;2023-04-24T09:52:06;12.50;99.90
48575;DHT22;34352;51.084;3.712;2023-04-24T09:54:32;12.10;99.90
48575;DHT22;34352;51.084;3.712;2023-04-24T09:56:58;12.40;99.90
48575;DHT22;34352;51.084;3.712;2023-04-24T09:59:26;12.70;99.90
48575;DHT22;34352;51.084;3.712;2023-04-24T10:01:52;13.40;99.90
48575;DHT22;34352;51.084;3.712;2023-04-24T10:04:20;14.20;99.90
48575;DHT22;34352;51.084;3.712;2023-04-24T10:06:47;14.80;99.90
48575;DHT22;34352;51.084;3.712;2023-04-24T10:09:15;14.60;99.90
48575;DHT22;34352;51.084;3.712;2023-04-24T10:11:46;14.60;99.90
48575;DHT22;34352;51.084;3.712;2023-04-24T10:14:15;14.60;99.90
48575;DHT22;34352;51.084;3.712;2023-04-24T10:16:44;14.40;99.90
48575;DHT22;34352;51.084;3.712;2023-04-24T10:19:13;13.60;99.90
48575;DHT22;34352;51.084;3.712;2023-04-24T10:21:40;13.70;99.90
48575;DHT22;34352;51.084;3.712;2023-04-24T10:24:13;14.10;99.90
48575;DHT22;34352;51.084;3.712;2023-04-24T10:26:40;14.60;99.90
48575;DHT22;34352;51.084;3.712;2023-04-24T10:29:07;14.50;99.90
48575;DHT22;34352;51.084;3.712;2023-04-24T10:31:37;14.20;99.90
48575;DHT22;34352;51.084;3.712;2023-04-24T10:34:05;14.20;99.90
48575;DHT22;34352;51.084;3.712;2023-04-24T10:36:33;14.20;99.90
48575;DHT22;34352;51.084;3.712;2023-04-24T10:39:01;14.30;99.90
48575;DHT22;34352;51.084;3.712;2023-04-24T10:41:30;14.40;99.90
48575;DHT22;34352;51.084;3.712;2023-04-24T10:44:13;14.00;99.90
48575;DHT22;34352;51.084;3.712;2023-04-24T10:46:43;13.90;99.90
48575;DHT22;34352;51.084;3.712;2023-04-24T10:49:10;14.40;99.90
48575;DHT22;34352;51.084;3.712;2023-04-24T10:51:48;15.10;99.90
48575;DHT22;34352;51.084;3.712;2023-04-24T10:54:35;15.30;99.90
48575;DHT22;34352;51.084;3.712;2023-04-24T11:00:21;16.00;99.90
48575;DHT22;34352;51.084;3.712;2023-04-24T11:02:47;16.20;99.90
48575;DHT22;34352;51.084;3.712;2023-04-24T11:05:16;16.80;99.90
48575;DHT22;34352;51.084;3.712;2023-04-24T11:10:46;16.30;99.90
48575;DHT22;34352;51.084;3.712;2023-04-24T11:13:21;16.30;99.90
48575;DHT22;34352;51.084;3.712;2023-04-24T11:16:11;16.20;99.90
48575;DHT22;34352;51.084;3.712;2023-04-24T11:18:38;16.00;99.90
48575;DHT22;34352;51.084;3.712;2023-04-24T11:21:12;15.80;99.90
48575;DHT22;34352;51.084;3.712;2023-04-24T11:23:39;15.70;99.90
48575;DHT22;34352;51.084;3.712;2023-04-24T11:26:17;16.60;99.90
48575;DHT22;34352;51.084;3.712;2023-04-24T11:28:48;17.20;99.90
48575;DHT22;34352;51.084;3.712;2023-04-24T11:31:36;18.40;99.90
48575;DHT22;34352;51.084;3.712;2023-04-24T11:34:10;19.10;99.90
48575;DHT22;34352;51.084;3.712;2023-04-24T11:36:36;19.60;99.90
48575;DHT22;34352;51.084;3.712;2023-04-24T11:39:02;19.60;99.90
48575;DHT22;34352;51.084;3.712;2023-04-24T11:41:29;19.80;99.90
48575;DHT22;34352;51.084;3.712;2023-04-24T11:43:55;19.50;99.90
48575;DHT22;34352;51.084;3.712;2023-04-24T11:46:22;19.90;99.90
48575;DHT22;34352;51.084;3.712;2023-04-24T11:48:47;21.00;99.90
48575;DHT22;34352;51.084;3.712;2023-04-24T11:51:14;21.00;99.90
48575;DHT22;34352;51.084;3.712;2023-04-24T11:53:41;20.60;99.90
48575;DHT22;34352;51.084;3.712;2023-04-24T11:56:08;19.80;99.90
48575;DHT22;34352;51.084;3.712;2023-04-24T11:58:38;18.70;99.90
48575;DHT22;34352;51.084;3.712;2023-04-24T12:01:05;18.70;99.80
48575;DHT22;34352;51.084;3.712;2023-04-24T12:03:31;19.10;98.10
48575;DHT22;34352;51.084;3.712;2023-04-24T12:06:10;18.80;96.70
48575;DHT22;34352;51.084;3.712;2023-04-24T12:08:37;17.40;94.30
48575;DHT22;34352;51.084;3.712;2023-04-24T12:11:05;16.50;87.40
48575;DHT22;34352;51.084;3.712;2023-04-24T12:13:33;16.00;78.70
48575;DHT22;34352;51.084;3.712;2023-04-24T12:16:00;16.00;81.60
48575;DHT22;34352;51.084;3.712;2023-04-24T12:18:28;15.60;93.80
48575;DHT22;34352;51.084;3.712;2023-04-24T12:20:53;15.20;83.90
48575;DHT22;34352;51.084;3.712;2023-04-24T12:23:35;15.10;79.50
48575;DHT22;34352;51.084;3.712;2023-04-24T12:26:03;15.50;90.10
48575;DHT22;34352;51.084;3.712;2023-04-24T12:28:40;16.10;92.60
48575;DHT22;34352;51.084;3.712;2023-04-24T12:31:06;16.80;94.90
48575;DHT22;34352;51.084;3.712;2023-04-24T12:33:33;17.10;91.30
48575;DHT22;34352;51.084;3.712;2023-04-24T12:36:01;16.90;89.80
48575;DHT22;34352;51.084;3.712;2023-04-24T12:38:29;17.00;93.80
48575;DHT22;34352;51.084;3.712;2023-04-24T12:41:09;17.30;92.10
48575;DHT22;34352;51.084;3.712;2023-04-24T12:43:36;17.10;86.30
48575;DHT22;34352;51.084;3.712;2023-04-24T12:46:04;16.90;91.80
48575;DHT22;34352;51.084;3.712;2023-04-24T12:48:33;17.20;89.40
48575;DHT22;34352;51.084;3.712;2023-04-24T12:50:59;17.30;93.10
48575;DHT22;34352;51.084;3.712;2023-04-24T12:53:28;18.10;87.90
48575;DHT22;34352;51.084;3.712;2023-04-24T12:55:56;18.20;86.80
48575;DHT22;34352;51.084;3.712;2023-04-24T12:58:22;17.90;86.00
48575;DHT22;34352;51.084;3.712;2023-04-24T13:00:48;18.50;91.50
48575;DHT22;34352;51.084;3.712;2023-04-24T13:03:14;18.90;92.10
48575;DHT22;34352;51.084;3.712;2023-04-24T13:05:40;19.30;99.40
48575;DHT22;34352;51.084;3.712;2023-04-24T13:08:08;19.60;97.60
48575;DHT22;34352;51.084;3.712;2023-04-24T13:10:35;19.10;90.40
48575;DHT22;34352;51.084;3.712;2023-04-24T13:13:01;19.50;92.60
48575;DHT22;34352;51.084;3.712;2023-04-24T13:15:27;20.30;96.60
48575;DHT22;34352;51.084;3.712;2023-04-24T13:17:52;20.30;94.00
48575;DHT22;34352;51.084;3.712;2023-04-24T13:20:20;20.30;99.50
48575;DHT22;34352;51.084;3.712;2023-04-24T13:22:46;19.50;97.40
48575;DHT22;34352;51.084;3.712;2023-04-24T13:25:12;19.10;92.30
48575;DHT22;34352;51.084;3.712;2023-04-24T13:27:39;18.80;81.70
48575;DHT22;34352;51.084;3.712;2023-04-24T13:30:05;18.70;93.90
48575;DHT22;34352;51.084;3.712;2023-04-24T13:32:33;17.90;86.10
48575;DHT22;34352;51.084;3.712;2023-04-24T13:35:00;17.40;87.00
48575;DHT22;34352;51.084;3.712;2023-04-24T13:37:30;17.10;89.70
48575;DHT22;34352;51.084;3.712;2023-04-24T13:39:57;17.30;87.60
48575;DHT22;34352;51.084;3.712;2023-04-24T13:42:23;16.90;91.00
48575;DHT22;34352;51.084;3.712;2023-04-24T13:44:50;16.70;63.10
48575;DHT22;34352;51.084;3.712;2023-04-24T13:47:18;17.10;75.90
48575;DHT22;34352;51.084;3.712;2023-04-24T13:49:44;17.80;92.70
48575;DHT22;34352;51.084;3.712;2023-04-24T13:52:09;18.50;91.20
48575;DHT22;34352;51.084;3.712;2023-04-24T13:54:36;18.40;96.40
48575;DHT22;34352;51.084;3.712;2023-04-24T13:57:03;18.10;92.90
48575;DHT22;34352;51.084;3.712;2023-04-24T13:59:33;17.40;88.60
48575;DHT22;34352;51.084;3.712;2023-04-24T14:01:59;16.80;91.70
48575;DHT22;34352;51.084;3.712;2023-04-24T14:04:25;16.20;77.90
48575;DHT22;34352;51.084;3.712;2023-04-24T14:06:52;15.60;66.10
48575;DHT22;34352;51.084;3.712;2023-04-24T14:09:18;15.60;70.40
48575;DHT22;34352;51.084;3.712;2023-04-24T14:11:43;16.10;81.10
48575;DHT22;34352;51.084;3.712;2023-04-24T14:14:09;16.50;71.20
48575;DHT22;34352;51.084;3.712;2023-04-24T14:16:35;16.70;74.40
48575;DHT22;34352;51.084;3.712;2023-04-24T14:19:02;17.30;84.70
48575;DHT22;34352;51.084;3.712;2023-04-24T14:21:27;18.10;85.30
48575;DHT22;34352;51.084;3.712;2023-04-24T14:23:57;18.20;72.70
48575;DHT22;34352;51.084;3.712;2023-04-24T14:26:24;18.30;76.30
48575;DHT22;34352;51.084;3.712;2023-04-24T14:28:50;17.90;94.80
48575;DHT22;34352;51.084;3.712;2023-04-24T14:31:18;17.20;84.20
48575;DHT22;34352;51.084;3.712;2023-04-24T14:33:43;16.90;78.30
48575;DHT22;34352;51.084;3.712;2023-04-24T14:36:11;16.50;75.60
48575;DHT22;34352;51.084;3.712;2023-04-24T14:38:37;16.20;66.30
48575;DHT22;34352;51.084;3.712;2023-04-24T14:41:04;16.00;58.30
48575;DHT22;34352;51.084;3.712;2023-04-24T14:43:36;15.80;76.80
48575;DHT22;34352;51.084;3.712;2023-04-24T14:46:03;15.90;68.30
48575;DHT22;34352;51.084;3.712;2023-04-24T14:48:29;15.70;65.00
48575;DHT22;34352;51.084;3.712;2023-04-24T14:50:54;15.60;60.90
48575;DHT22;34352;51.084;3.712;2023-04-24T14:53:28;15.40;68.70
48575;DHT22;34352;51.084;3.712;2023-04-24T14:55:54;15.30;61.30
48575;DHT22;34352;51.084;3.712;2023-04-24T14:58:20;15.30;76.40
48575;DHT22;34352;51.084;3.712;2023-04-24T15:00:46;15.40;76.30
48575;DHT22;34352;51.084;3.712;2023-04-24T15:03:15;15.40;56.90
48575;DHT22;34352;51.084;3.712;2023-04-24T15:05:40;15.30;63.00
48575;DHT22;34352;51.084;3.712;2023-04-24T15:08:06;15.20;62.30
48575;DHT22;34352;51.084;3.712;2023-04-24T15:10:31;15.00;61.10
48575;DHT22;34352;51.084;3.712;2023-04-24T15:13:03;14.70;59.30
48575;DHT22;34352;51.084;3.712;2023-04-24T15:15:30;14.60;70.50
48575;DHT22;34352;51.084;3.712;2023-04-24T15:17:56;14.70;60.10
48575;DHT22;34352;51.084;3.712;2023-04-24T15:20:21;15.00;71.10
48575;DHT22;34352;51.084;3.712;2023-04-24T15:22:47;15.20;77.90
48575;DHT22;34352;51.084;3.712;2023-04-24T15:25:13;15.20;69.90
48575;DHT22;34352;51.084;3.712;2023-04-24T15:27:43;15.10;66.70
48575;DHT22;34352;51.084;3.712;2023-04-24T15:30:09;15.10;63.90
48575;DHT22;34352;51.084;3.712;2023-04-24T15:32:36;15.10;65.40
48575;DHT22;34352;51.084;3.712;2023-04-24T15:35:02;15.20;73.60
48575;DHT22;34352;51.084;3.712;2023-04-24T15:37:36;15.40;61.50
48575;DHT22;34352;51.084;3.712;2023-04-24T15:40:03;15.50;70.30
48575;DHT22;34352;51.084;3.712;2023-04-24T15:42:31;15.30;66.50
48575;DHT22;34352;51.084;3.712;2023-04-24T15:44:58;15.30;74.10
48575;DHT22;34352;51.084;3.712;2023-04-24T15:47:24;15.30;67.10